Terminal Aerodrome Forecast
Issued by NWS Rapid City, SD

Home | Current Version | Previous Version | Text Only | Print | Product List | Glossary Off
Versions: 1 2 3 4 5 6 7 8 9 10 11 12 13 14 15 16 17 18 19 20

000
FTUS43 KUNR 292058 AAB
TAFRAP
TAF AMD
KRAP 292058Z 2921/3018 33036G48KT P6SM SCT020 BKN040
      TEMPO 2921/2924 4SM -SN BLSN SCT012 BKN018
     FM300000 33027G37KT P6SM SCT050 BKN100=

USA.gov is the U.S. government's official web portal to all federal, state and local government web resources and services.